Catarroja, Spain
Current Conditions -  °F | °C
As of 11:30 PM on Thursday 23 Oct 2014 (Local Time) from LEVC Reporting Station
Clear Clear  
Wind Chill: 66°   Ceiling: Unl
Heat Index: 66°   Visibility: 6mi
Dew Point: 50°   Wind: 3mph
Humidity: 56%   Direction: 300°WNW
Pressure: 30.03"   Gusts: NA
Location:  39.4°N, 0.4°W
Report Text: LEVC 232130Z 30003KT 280V340 CAVOK 19/10 Q1017 NOSIG
Loading
Personal Weather Stations






























Interactive Weather Map
Tropical Storm Tracking
New forecast layout! Learn more

10-Day Weather Forecast

Advertisements
Track Severe Weather on mobile